createdAt,value
2019-04-30T00:00:55.385Z,11.70
2019-04-30T00:03:40.935Z,11.90
2019-04-30T00:06:09.444Z,11.87
2019-04-30T00:08:39.061Z,11.53
2019-04-30T00:11:10.914Z,11.97
2019-04-30T00:13:37.927Z,12.03
2019-04-30T00:16:06.391Z,11.97
2019-04-30T00:18:38.242Z,11.47
2019-04-30T00:21:05.437Z,12.30
2019-04-30T00:23:35.837Z,12.20
2019-04-30T00:26:08.690Z,11.90
2019-04-30T00:28:35.395Z,13.23
2019-04-30T00:31:05.517Z,13.67
2019-04-30T00:33:35.379Z,13.13
2019-04-30T00:36:05.021Z,13.77
2019-04-30T00:38:37.734Z,14.67
2019-04-30T00:41:06.839Z,14.07
2019-04-30T00:43:35.378Z,14.30
2019-04-30T00:46:05.125Z,12.80
2019-04-30T00:48:35.554Z,14.10
2019-04-30T00:51:07.590Z,15.30
2019-04-30T00:53:35.789Z,15.20
2019-04-30T00:56:26.920Z,16.07
2019-04-30T00:58:57.446Z,14.87
2019-04-30T01:01:25.727Z,13.93
2019-04-30T01:04:10.523Z,14.53
2019-04-30T01:06:39.331Z,14.50
2019-04-30T01:09:08.685Z,13.80
2019-04-30T01:11:39.866Z,14.77
2019-04-30T01:14:07.607Z,14.50
2019-04-30T01:16:36.052Z,15.07
2019-04-30T01:19:05.779Z,15.60
2019-04-30T01:21:34.992Z,14.50
2019-04-30T01:24:03.505Z,14.33
2019-04-30T01:26:32.201Z,13.27
2019-04-30T01:31:58.597Z,15.03
2019-04-30T01:34:27.196Z,14.70
2019-04-30T01:36:55.628Z,14.40
2019-04-30T01:39:28.482Z,12.13
2019-04-30T01:41:54.209Z,15.70
2019-04-30T01:44:22.649Z,14.50
2019-04-30T01:46:51.777Z,14.87
2019-04-30T01:49:25.701Z,15.73
2019-04-30T01:51:52.890Z,15.20
2019-04-30T01:54:24.053Z,14.83
2019-04-30T01:57:10.721Z,15.77
2019-04-30T01:59:58.295Z,13.03
2019-04-30T02:02:28.656Z,14.53
2019-04-30T02:04:59.039Z,14.57
2019-04-30T02:07:28.775Z,15.60
2019-04-30T02:09:58.763Z,14.90
2019-04-30T02:12:29.527Z,14.23
2019-04-30T02:14:59.496Z,15.07
2019-04-30T02:17:29.289Z,14.63
2019-04-30T02:19:59.374Z,17.37
2019-04-30T02:22:30.897Z,16.10
2019-04-30T02:24:58.634Z,15.30
2019-04-30T02:27:29.413Z,15.67
2019-04-30T02:30:02.025Z,15.47
2019-04-30T02:32:30.385Z,14.03
2019-04-30T02:35:02.318Z,16.10
2019-04-30T02:37:32.384Z,14.67
2019-04-30T02:40:01.098Z,15.80
2019-04-30T02:42:30.954Z,15.53
2019-04-30T02:45:03.853Z,13.90
2019-04-30T02:47:35.277Z,15.27
2019-04-30T02:50:15.647Z,15.00
2019-04-30T02:52:40.193Z,15.00
2019-04-30T02:55:11.557Z,14.73
2019-04-30T02:57:40.206Z,13.97
2019-04-30T03:00:10.701Z,13.90
2019-04-30T03:02:39.561Z,15.30
2019-04-30T03:05:12.943Z,14.30
2019-04-30T03:07:40.915Z,15.47
2019-04-30T03:10:10.307Z,14.47
2019-04-30T03:12:40.516Z,14.10
2019-04-30T03:15:10.010Z,15.73
2019-04-30T03:17:46.227Z,15.80
2019-04-30T03:20:32.646Z,15.30
2019-04-30T03:22:55.378Z,16.03
2019-04-30T03:25:24.379Z,15.13
2019-04-30T03:27:52.823Z,17.20
2019-04-30T03:30:22.191Z,18.60
2019-04-30T03:32:56.624Z,16.23
2019-04-30T03:35:22.834Z,15.00
2019-04-30T03:37:51.164Z,17.07
2019-04-30T03:40:20.211Z,15.37
2019-04-30T03:42:49.418Z,17.47
2019-04-30T03:45:20.448Z,15.37
2019-04-30T03:47:50.460Z,15.97
2019-04-30T03:50:19.836Z,16.13
2019-04-30T03:52:50.399Z,16.50
2019-04-30T03:55:20.901Z,16.70
2019-04-30T03:57:51.688Z,16.70
2019-04-30T04:00:20.887Z,16.47
2019-04-30T04:02:50.145Z,17.43
2019-04-30T04:05:26.305Z,17.17
2019-04-30T04:07:59.845Z,18.53
2019-04-30T04:10:33.200Z,16.17
2019-04-30T04:13:01.697Z,18.20
2019-04-30T04:15:30.123Z,17.07
2019-04-30T04:18:00.361Z,18.60
2019-04-30T04:20:29.877Z,17.27
2019-04-30T04:22:59.877Z,18.77
2019-04-30T04:25:29.951Z,17.77
2019-04-30T04:28:00.450Z,19.07
2019-04-30T04:30:29.710Z,19.20
2019-04-30T04:32:59.950Z,18.80
2019-04-30T04:35:29.907Z,18.00
2019-04-30T04:38:00.355Z,20.03
2019-04-30T04:40:30.249Z,18.67
2019-04-30T04:43:00.285Z,18.30
2019-04-30T04:45:30.525Z,19.27
2019-04-30T04:48:00.230Z,18.83
2019-04-30T04:50:30.194Z,20.47
2019-04-30T04:52:59.545Z,18.13
2019-04-30T04:55:29.894Z,20.97
2019-04-30T04:57:59.842Z,18.90
2019-04-30T05:00:29.395Z,19.90
2019-04-30T05:03:05.721Z,20.03
2019-04-30T05:05:53.750Z,19.40
2019-04-30T05:08:22.165Z,20.50
2019-04-30T05:10:50.605Z,19.43
2019-04-30T05:13:19.292Z,20.70
2019-04-30T05:15:51.226Z,20.20
2019-04-30T05:18:19.138Z,18.13
2019-04-30T05:20:49.070Z,19.40
2019-04-30T05:23:19.542Z,20.13
2019-04-30T05:25:49.104Z,18.80
2019-04-30T05:28:18.948Z,19.13
2019-04-30T05:30:49.404Z,18.03
2019-04-30T05:33:18.628Z,18.80
2019-04-30T05:35:47.257Z,18.50
2019-04-30T05:38:15.697Z,19.83
2019-04-30T05:40:44.117Z,19.23
2019-04-30T05:43:31.898Z,19.30
2019-04-30T05:46:00.316Z,18.23
2019-04-30T05:48:28.828Z,19.63
2019-04-30T05:50:59.110Z,18.43
2019-04-30T05:53:28.701Z,20.17
2019-04-30T05:55:59.177Z,19.63
2019-04-30T05:58:29.780Z,18.43
2019-04-30T06:00:59.627Z,20.07
2019-04-30T06:03:32.901Z,20.20
2019-04-30T06:05:58.929Z,18.80
2019-04-30T06:08:29.308Z,18.60
2019-04-30T06:11:11.346Z,18.40
2019-04-30T06:13:56.470Z,19.40
2019-04-30T06:16:26.528Z,18.60
2019-04-30T06:18:54.955Z,18.93
2019-04-30T06:21:23.414Z,19.70
2019-04-30T06:23:51.916Z,20.03
2019-04-30T06:26:20.833Z,16.87
2019-04-30T06:28:49.730Z,18.00
2019-04-30T06:31:22.282Z,18.27
2019-04-30T06:33:48.795Z,18.77
2019-04-30T06:36:19.064Z,16.93
2019-04-30T06:38:48.888Z,18.37
2019-04-30T06:41:19.692Z,16.50
2019-04-30T06:43:48.837Z,17.57
2019-04-30T06:46:18.732Z,17.97
2019-04-30T06:48:50.835Z,20.30
2019-04-30T06:51:18.939Z,17.50
2019-04-30T06:53:49.568Z,18.47
2019-04-30T06:56:18.957Z,18.57
2019-04-30T06:58:49.358Z,20.70
2019-04-30T07:01:19.104Z,18.40
2019-04-30T07:03:48.757Z,17.87
2019-04-30T07:06:27.540Z,18.33
2019-04-30T07:08:59.638Z,16.80
2019-04-30T07:11:32.578Z,17.67
2019-04-30T07:14:01.012Z,14.53
2019-04-30T07:16:29.955Z,17.20
2019-04-30T07:18:58.723Z,19.43
2019-04-30T07:21:31.353Z,17.90
2019-04-30T07:23:59.553Z,18.30
2019-04-30T07:26:28.960Z,19.30
2019-04-30T07:29:01.912Z,17.70
2019-04-30T07:31:29.581Z,18.50
2019-04-30T07:33:59.491Z,18.67
2019-04-30T07:36:43.435Z,17.90
2019-04-30T07:38:59.864Z,18.87
2019-04-30T07:41:30.877Z,18.23
2019-04-30T07:43:59.319Z,19.83
2019-04-30T07:46:29.795Z,18.33
2019-04-30T07:49:00.036Z,17.23
2019-04-30T07:51:32.173Z,17.27
2019-04-30T07:53:59.024Z,17.23
2019-04-30T07:56:31.680Z,19.90
2019-04-30T07:59:00.764Z,17.60
2019-04-30T08:01:29.499Z,17.40
2019-04-30T08:04:05.565Z,19.10
2019-04-30T08:06:34.142Z,17.70
2019-04-30T08:09:02.809Z,16.30
2019-04-30T08:11:34.526Z,17.90
2019-04-30T08:14:01.858Z,17.13
2019-04-30T08:16:31.077Z,19.50
2019-04-30T08:18:59.513Z,16.80
2019-04-30T08:21:28.759Z,18.63
2019-04-30T08:23:59.330Z,17.93
2019-04-30T08:26:28.644Z,19.40
2019-04-30T08:28:57.314Z,18.77
2019-04-30T08:31:25.726Z,17.87
2019-04-30T08:33:54.317Z,17.47
2019-04-30T08:36:22.753Z,17.50
2019-04-30T08:38:51.198Z,18.97
2019-04-30T08:41:19.638Z,17.00
2019-04-30T08:43:49.670Z,18.60
2019-04-30T08:46:19.027Z,16.97
2019-04-30T08:48:51.560Z,17.00
2019-04-30T08:51:19.118Z,15.57
2019-04-30T08:53:48.667Z,16.30
2019-04-30T08:56:21.718Z,18.13
2019-04-30T08:58:49.075Z,16.30
2019-04-30T09:01:19.603Z,17.50
2019-04-30T09:03:50.938Z,16.53
2019-04-30T09:06:19.802Z,18.57
2019-04-30T09:08:49.104Z,18.00
2019-04-30T09:11:25.047Z,19.17
2019-04-30T09:13:48.794Z,19.50
2019-04-30T09:16:19.369Z,18.67
2019-04-30T09:18:49.436Z,18.63
2019-04-30T09:21:18.687Z,20.83
2019-04-30T09:23:51.957Z,19.20
2019-04-30T09:26:18.737Z,17.77
2019-04-30T09:28:49.255Z,19.50
2019-04-30T09:31:17.391Z,19.43
2019-04-30T09:33:45.823Z,16.70
2019-04-30T09:36:14.247Z,17.50
2019-04-30T09:38:42.683Z,19.70
2019-04-30T09:41:11.115Z,19.90
2019-04-30T09:43:40.505Z,21.63
2019-04-30T09:46:17.895Z,19.30
2019-04-30T09:48:39.304Z,20.03
2019-04-30T09:51:10.391Z,19.70
2019-04-30T09:53:39.418Z,19.60
2019-04-30T09:56:09.574Z,19.23
2019-04-30T09:58:39.335Z,20.43
2019-04-30T10:01:09.424Z,19.10
2019-04-30T10:03:39.144Z,19.10
2019-04-30T10:06:12.488Z,20.77
2019-04-30T10:08:48.425Z,20.40
2019-04-30T10:11:12.812Z,21.23
2019-04-30T10:13:41.231Z,18.30
2019-04-30T10:16:23.452Z,22.57
2019-04-30T10:18:51.876Z,18.60
2019-04-30T10:21:32.253Z,21.13
2019-04-30T10:24:12.289Z,20.00
2019-04-30T10:26:30.848Z,22.20
2019-04-30T10:29:00.575Z,20.40
2019-04-30T10:31:29.393Z,20.00
2019-04-30T10:33:58.631Z,20.60
2019-04-30T10:36:29.421Z,20.60
2019-04-30T10:38:59.368Z,21.90
2019-04-30T10:41:28.762Z,22.90
2019-04-30T10:43:59.126Z,20.80
2019-04-30T10:46:27.809Z,22.73
2019-04-30T10:48:56.577Z,23.13
2019-04-30T10:51:25.065Z,19.90
2019-04-30T10:53:53.506Z,21.97
2019-04-30T10:56:22.226Z,21.50
2019-04-30T10:58:50.661Z,21.83
2019-04-30T11:01:19.318Z,18.10
2019-04-30T11:03:48.066Z,22.53
2019-04-30T11:06:16.489Z,20.37
2019-04-30T11:08:44.943Z,19.87
2019-04-30T11:11:13.349Z,21.60
2019-04-30T11:13:41.786Z,19.13
2019-04-30T11:16:14.719Z,21.60
2019-04-30T11:18:40.788Z,21.07
2019-04-30T11:21:10.006Z,19.23
2019-04-30T11:23:39.609Z,21.70
2019-04-30T11:26:08.907Z,18.60
2019-04-30T11:28:37.936Z,16.27
2019-04-30T11:31:26.938Z,21.33
2019-04-30T11:34:00.202Z,21.47
2019-04-30T11:36:29.177Z,21.23
2019-04-30T11:38:58.665Z,19.70
2019-04-30T11:41:30.870Z,21.80
2019-04-30T11:43:59.332Z,20.60
2019-04-30T11:46:38.374Z,22.50
2019-04-30T11:49:06.714Z,21.77
2019-04-30T11:51:35.135Z,22.00
2019-04-30T11:54:04.015Z,20.37
2019-04-30T11:56:32.494Z,22.03
2019-04-30T11:59:00.927Z,20.67
2019-04-30T12:01:31.274Z,20.20
2019-04-30T12:03:59.966Z,20.63
2019-04-30T12:06:28.587Z,20.07
2019-04-30T12:09:01.828Z,18.73
2019-04-30T12:11:37.896Z,19.07
2019-04-30T12:14:06.571Z,18.40
2019-04-30T12:16:35.016Z,18.60
2019-04-30T12:19:03.527Z,19.23
2019-04-30T12:21:31.963Z,20.20
2019-04-30T12:24:00.383Z,20.40
2019-04-30T12:26:28.985Z,19.77
2019-04-30T12:28:57.539Z,20.23
2019-04-30T12:31:25.975Z,20.23
2019-04-30T12:33:54.396Z,19.27
2019-04-30T12:36:22.832Z,19.30
2019-04-30T12:38:51.267Z,20.10
2019-04-30T12:41:20.640Z,18.10
2019-04-30T12:43:49.064Z,19.07
2019-04-30T12:46:19.038Z,20.50
2019-04-30T12:48:55.483Z,17.73
2019-04-30T12:51:28.636Z,19.07
2019-04-30T12:54:15.144Z,17.90
2019-04-30T12:56:57.375Z,18.47
2019-04-30T12:59:25.816Z,18.30
2019-04-30T13:01:54.254Z,17.37
2019-04-30T13:04:22.673Z,18.57
2019-04-30T13:06:51.744Z,18.40
2019-04-30T13:09:21.440Z,16.83
2019-04-30T13:11:50.923Z,18.43
2019-04-30T13:14:20.801Z,16.73
2019-04-30T13:16:49.700Z,16.17
2019-04-30T13:19:18.146Z,18.17
2019-04-30T13:21:46.571Z,18.67
2019-04-30T13:24:15.238Z,18.10
2019-04-30T13:26:43.799Z,15.60
2019-04-30T13:29:13.881Z,17.97
2019-04-30T13:31:42.313Z,17.90
2019-04-30T13:37:21.142Z,16.90
2019-04-30T13:39:57.233Z,17.50
2019-04-30T13:42:33.425Z,17.10
2019-04-30T13:45:01.865Z,18.23
2019-04-30T13:47:30.299Z,17.73
2019-04-30T13:49:59.394Z,17.93
2019-04-30T13:52:28.871Z,15.70
2019-04-30T13:54:58.198Z,15.57
2019-04-30T13:57:26.626Z,16.73
2019-04-30T13:59:55.075Z,17.30
2019-04-30T14:02:23.493Z,16.33
2019-04-30T14:04:56.333Z,16.70
2019-04-30T14:07:42.945Z,15.20
2019-04-30T14:10:12.079Z,16.30
2019-04-30T14:12:42.146Z,16.70
2019-04-30T14:15:11.326Z,17.80
2019-04-30T14:17:40.183Z,17.27
2019-04-30T14:20:09.294Z,16.83
2019-04-30T14:22:37.734Z,17.27
2019-04-30T14:25:07.485Z,16.60
2019-04-30T14:27:39.595Z,16.17
2019-04-30T14:30:09.192Z,16.67
2019-04-30T14:32:56.890Z,15.53
2019-04-30T14:35:25.310Z,12.63
2019-04-30T14:37:53.757Z,13.67
2019-04-30T14:40:22.721Z,13.13
2019-04-30T14:43:00.049Z,14.20
2019-04-30T14:45:47.610Z,13.80
2019-04-30T14:48:20.724Z,13.40
2019-04-30T14:51:00.661Z,13.57
2019-04-30T14:53:42.907Z,13.47
2019-04-30T14:56:19.671Z,15.00
2019-04-30T14:58:52.935Z,13.47
2019-04-30T15:01:37.763Z,13.70
2019-04-30T15:04:06.261Z,13.00
2019-04-30T15:06:34.695Z,13.97
2019-04-30T15:09:05.340Z,13.30
2019-04-30T15:11:34.219Z,11.70
2019-04-30T15:14:02.707Z,12.83
2019-04-30T15:16:31.147Z,12.83
2019-04-30T15:18:59.591Z,11.90
2019-04-30T15:21:28.052Z,10.33
2019-04-30T15:24:03.753Z,11.70
2019-04-30T15:26:32.167Z,11.67
2019-04-30T15:29:00.612Z,13.23
2019-04-30T15:31:29.648Z,11.20
2019-04-30T15:34:02.846Z,12.53
2019-04-30T15:36:30.252Z,13.27
2019-04-30T15:39:00.396Z,11.90
2019-04-30T15:41:29.304Z,11.77
2019-04-30T15:43:57.744Z,11.07
2019-04-30T15:46:26.183Z,11.57
2019-04-30T15:48:54.624Z,10.63
2019-04-30T15:51:23.472Z,10.97
2019-04-30T15:53:51.918Z,11.93
2019-04-30T15:56:20.341Z,11.80
2019-04-30T15:59:08.886Z,11.13
2019-04-30T16:01:37.788Z,10.97
2019-04-30T16:04:10.102Z,12.63
2019-04-30T16:06:38.539Z,13.07
2019-04-30T16:09:10.545Z,12.80
2019-04-30T16:11:43.897Z,13.63
2019-04-30T16:14:14.045Z,11.50
2019-04-30T16:16:44.130Z,13.93
2019-04-30T16:19:31.889Z,14.23
2019-04-30T16:22:00.329Z,12.70
2019-04-30T16:24:28.875Z,15.37
2019-04-30T16:26:59.162Z,14.57
2019-04-30T16:29:27.505Z,14.60
2019-04-30T16:31:55.934Z,15.03
2019-04-30T16:34:24.393Z,15.30
2019-04-30T16:36:52.886Z,15.00
2019-04-30T16:39:21.317Z,14.00
2019-04-30T16:41:49.879Z,14.67
2019-04-30T16:44:37.989Z,13.70
2019-04-30T16:47:13.414Z,14.60
2019-04-30T16:49:36.570Z,13.93
2019-04-30T16:52:05.006Z,14.63
2019-04-30T16:54:33.430Z,13.50
2019-04-30T16:57:06.489Z,13.87
2019-04-30T16:59:38.792Z,13.67
2019-04-30T17:02:09.214Z,13.93
2019-04-30T17:04:53.882Z,13.30
2019-04-30T17:07:33.214Z,12.47
2019-04-30T17:10:12.355Z,12.13
2019-04-30T17:13:00.768Z,11.73
2019-04-30T17:15:33.626Z,12.00
2019-04-30T17:18:03.059Z,11.57
2019-04-30T17:20:31.647Z,11.40
2019-04-30T17:23:00.079Z,11.80
2019-04-30T17:25:28.863Z,13.10
2019-04-30T17:28:01.153Z,12.03
2019-04-30T17:30:29.234Z,12.23
2019-04-30T17:32:59.578Z,12.93
2019-04-30T17:35:28.855Z,12.00
2019-04-30T17:37:57.531Z,11.80
2019-04-30T17:40:33.507Z,11.30
2019-04-30T17:43:01.939Z,11.23
2019-04-30T17:45:30.395Z,14.00
2019-04-30T17:47:58.823Z,12.27
2019-04-30T17:50:27.311Z,11.20
2019-04-30T17:52:55.787Z,11.13
2019-04-30T17:55:24.203Z,11.83
2019-04-30T17:57:54.983Z,9.43
2019-04-30T18:00:23.496Z,12.37
2019-04-30T18:02:52.017Z,12.10
2019-04-30T18:05:20.565Z,12.20
2019-04-30T18:07:49.755Z,12.73
2019-04-30T18:10:20.493Z,11.73
2019-04-30T18:12:48.910Z,12.40
2019-04-30T18:15:21.909Z,12.50
2019-04-30T18:17:54.706Z,12.83
2019-04-30T18:20:24.829Z,12.40
2019-04-30T18:22:54.974Z,11.13
2019-04-30T18:25:47.165Z,13.17
2019-04-30T18:28:15.586Z,12.00
2019-04-30T18:30:44.118Z,12.80
2019-04-30T18:33:12.550Z,12.70
2019-04-30T18:35:41.034Z,11.90
2019-04-30T18:38:30.693Z,12.83
2019-04-30T18:41:11.838Z,12.50
2019-04-30T18:43:40.639Z,13.23
2019-04-30T18:46:10.817Z,12.70
2019-04-30T18:48:39.563Z,11.53
2019-04-30T18:51:23.460Z,12.40
2019-04-30T18:53:39.744Z,12.77
2019-04-30T18:56:13.943Z,12.23
2019-04-30T18:58:42.281Z,12.70
2019-04-30T19:01:09.402Z,12.27
2019-04-30T19:03:39.125Z,12.37
2019-04-30T19:06:22.269Z,11.70
2019-04-30T19:08:41.180Z,12.90
2019-04-30T19:11:11.247Z,13.20
2019-04-30T19:13:41.332Z,12.80
2019-04-30T19:16:21.820Z,13.37
2019-04-30T19:18:43.259Z,13.20
2019-04-30T19:21:11.968Z,12.23
2019-04-30T19:23:40.591Z,13.30
2019-04-30T19:26:09.031Z,13.37
2019-04-30T19:28:38.693Z,13.93
2019-04-30T19:31:11.322Z,12.90
2019-04-30T19:33:38.945Z,14.67
2019-04-30T19:36:09.650Z,13.30
2019-04-30T19:38:37.702Z,13.63
2019-04-30T19:41:06.125Z,13.00
2019-04-30T19:43:34.565Z,12.77
2019-04-30T19:46:02.994Z,14.33
2019-04-30T19:48:31.447Z,13.20
2019-04-30T19:50:59.880Z,13.50
2019-04-30T19:53:30.226Z,14.87
2019-04-30T19:55:58.544Z,13.87
2019-04-30T19:58:45.734Z,14.10
2019-04-30T20:00:57.125Z,14.10
2019-04-30T20:03:25.568Z,14.40
2019-04-30T20:05:54.194Z,12.73
2019-04-30T20:08:23.041Z,14.93
2019-04-30T20:10:51.505Z,13.60
2019-04-30T20:13:32.950Z,14.17
2019-04-30T20:15:50.093Z,14.43
2019-04-30T20:18:19.025Z,13.30
2019-04-30T20:20:51.780Z,14.23
2019-04-30T20:23:19.525Z,14.60
2019-04-30T20:25:47.944Z,14.37
2019-04-30T20:28:16.381Z,14.47
2019-04-30T20:31:04.225Z,14.60
2019-04-30T20:33:32.661Z,13.80
2019-04-30T20:36:01.081Z,14.97
2019-04-30T20:38:39.821Z,13.93
2019-04-30T20:41:09.909Z,14.70
2019-04-30T20:43:39.503Z,13.30
2019-04-30T20:46:08.679Z,13.77
2019-04-30T20:48:39.354Z,13.70
2019-04-30T20:51:09.167Z,14.67
2019-04-30T20:53:39.117Z,13.87
2019-04-30T20:56:09.227Z,13.67
2019-04-30T20:58:40.520Z,13.17
2019-04-30T21:01:09.625Z,14.07
2019-04-30T21:03:39.622Z,15.40
2019-04-30T21:06:08.791Z,13.83
2019-04-30T21:08:37.561Z,14.80
2019-04-30T21:11:05.985Z,14.70
2019-04-30T21:13:34.418Z,14.47
2019-04-30T21:16:02.870Z,14.73
2019-04-30T21:18:32.581Z,13.17
2019-04-30T21:21:01.190Z,14.63
2019-04-30T21:23:29.623Z,14.27
2019-04-30T21:25:58.903Z,16.27
2019-04-30T21:28:29.546Z,15.50
2019-04-30T21:30:59.496Z,15.80
2019-04-30T21:33:41.794Z,15.50
2019-04-30T21:36:11.935Z,15.00
2019-04-30T21:38:40.479Z,16.70
2019-04-30T21:41:09.959Z,16.00
2019-04-30T21:43:38.608Z,16.23
2019-04-30T21:46:09.331Z,17.53
2019-04-30T21:48:38.828Z,16.50
2019-04-30T21:51:09.224Z,16.50
2019-04-30T21:53:39.384Z,17.40
2019-04-30T21:56:07.674Z,18.47
2019-04-30T21:58:36.091Z,17.03
2019-04-30T22:01:09.539Z,17.00
2019-04-30T22:03:39.452Z,19.07
2019-04-30T22:06:08.462Z,17.73
2019-04-30T22:08:38.841Z,18.83
2019-04-30T22:11:09.600Z,17.07
2019-04-30T22:13:57.003Z,16.20
2019-04-30T22:16:25.451Z,17.70
2019-04-30T22:18:53.871Z,17.70
2019-04-30T22:21:22.387Z,17.70
2019-04-30T22:23:50.904Z,16.73
2019-04-30T22:26:19.339Z,18.23
2019-04-30T22:28:49.356Z,16.57
2019-04-30T22:31:19.756Z,17.00
2019-04-30T22:33:49.088Z,17.67
2019-04-30T22:36:21.974Z,18.00
2019-04-30T22:38:52.033Z,18.87
2019-04-30T22:41:22.212Z,16.57
2019-04-30T22:43:50.636Z,18.57
2019-04-30T22:46:19.472Z,19.13
2019-04-30T22:48:48.038Z,17.10
2019-04-30T22:51:16.468Z,17.90
2019-04-30T22:53:44.892Z,17.63
2019-04-30T22:56:16.216Z,18.97
2019-04-30T22:58:44.649Z,17.97
2019-04-30T23:01:31.201Z,18.77
2019-04-30T23:04:01.284Z,19.80
2019-04-30T23:06:29.724Z,19.90
2019-04-30T23:08:58.146Z,19.67
2019-04-30T23:11:26.641Z,17.97
2019-04-30T23:13:55.085Z,18.40
2019-04-30T23:16:23.504Z,18.67
2019-04-30T23:18:51.937Z,17.90
2019-04-30T23:21:20.365Z,19.07
2019-04-30T23:23:48.789Z,21.20
2019-04-30T23:26:17.253Z,18.30
2019-04-30T23:28:45.706Z,20.63
2019-04-30T23:31:14.131Z,17.17
2019-04-30T23:33:42.693Z,17.17
2019-04-30T23:36:11.141Z,20.00
2019-04-30T23:38:39.661Z,17.90
2019-04-30T23:41:08.106Z,19.60
2019-04-30T23:43:36.566Z,19.00
2019-04-30T23:46:05.009Z,20.43
2019-04-30T23:48:33.453Z,20.03
2019-04-30T23:51:01.901Z,22.10
2019-04-30T23:53:30.325Z,21.00
2019-04-30T23:55:58.781Z,19.87
2019-04-30T23:58:27.222Z,21.33
